Waldo, Wisconsin
Current Conditions -  °F | °C
As of 3:53 AM on Friday 24 Oct 2014 (Local Time) from KSBM Reporting Station
Haze Haze  
Wind Chill: 47°   Ceiling: 500
Heat Index: 49°   Visibility: 3mi
Dew Point: 48°   Wind: 5mph
Humidity: 97%   Direction: 280°W
Pressure: 30.03"   Gusts: NA
Location:  43.67°N, 87.95°W
Report Text: KSBM 240853Z AUTO 28004KT 3SM BR OVC005 09/09 A3003 RMK AO2 SLP171 T00940089 $
Loading
Personal Weather Stations






























Interactive Weather Map New forecast layout! Learn more

10-Day Weather Forecast

Advertisements
Track Severe Weather on mobile